createdAt,value
2023-02-13T00:02:33.000Z,13.6
2023-02-13T00:06:06.000Z,13
2023-02-13T00:08:57.000Z,11.8
2023-02-13T00:12:32.000Z,11.7
2023-02-13T00:16:05.000Z,11.2
2023-02-13T00:19:37.000Z,11
2023-02-13T00:23:10.000Z,9.9
2023-02-13T00:26:48.000Z,9.2
2023-02-13T00:30:20.000Z,10.5
2023-02-13T00:33:53.000Z,11.1
2023-02-13T00:37:26.000Z,10
2023-02-13T00:40:58.000Z,10.7
2023-02-13T00:44:31.000Z,11.9
2023-02-13T00:47:22.000Z,11.6
2023-02-13T00:50:55.000Z,13.2
2023-02-13T00:54:27.000Z,14.5
2023-02-13T00:58:00.000Z,14.1
2023-02-13T01:01:33.000Z,16.2
2023-02-13T01:05:05.000Z,14.4
2023-02-13T01:08:38.000Z,14.4
2023-02-13T01:12:10.000Z,17.7
2023-02-13T01:15:43.000Z,16.9
2023-02-13T01:19:16.000Z,15.9
2023-02-13T01:22:49.000Z,15
2023-02-13T01:25:40.000Z,16.1
2023-02-13T01:29:15.000Z,16.9
2023-02-13T01:32:48.000Z,17.9
2023-02-13T01:36:20.000Z,18.6
2023-02-13T01:39:53.000Z,19.9
2023-02-13T01:43:26.000Z,19.2
2023-02-13T01:46:59.000Z,17.5
2023-02-13T01:50:31.000Z,17.9
2023-02-13T01:54:04.000Z,18.4
2023-02-13T01:57:37.000Z,17.1
2023-02-13T02:01:09.000Z,16.6
2023-02-13T02:04:00.000Z,17.3
2023-02-13T02:07:33.000Z,16.5
2023-02-13T02:11:05.000Z,16.5
2023-02-13T02:14:38.000Z,16.8
2023-02-13T02:18:11.000Z,17
2023-02-13T02:21:43.000Z,16.1
2023-02-13T02:25:16.000Z,15.1
2023-02-13T02:28:49.000Z,16.9
2023-02-13T02:32:21.000Z,16.7
2023-02-13T02:35:54.000Z,17.1
2023-02-13T02:39:27.000Z,16.4
2023-02-13T02:42:18.000Z,16.8
2023-02-13T02:45:51.000Z,15.7
2023-02-13T02:49:24.000Z,15.9
2023-02-13T02:52:57.000Z,15.2
2023-02-13T02:56:29.000Z,15.5
2023-02-13T03:00:02.000Z,14.8
2023-02-13T03:03:34.000Z,14.7
2023-02-13T03:07:07.000Z,14.7
2023-02-13T03:10:40.000Z,14.9
2023-02-13T03:14:12.000Z,14.8
2023-02-13T03:17:45.000Z,14.1
2023-02-13T03:20:36.000Z,15.1
2023-02-13T03:24:09.000Z,17.2
2023-02-13T03:27:42.000Z,15.1
2023-02-13T03:31:14.000Z,14.8
2023-02-13T03:34:47.000Z,14.5
2023-02-13T03:38:19.000Z,14
2023-02-13T03:41:52.000Z,15.4
2023-02-13T03:45:24.000Z,13.6
2023-02-13T03:48:57.000Z,13.4
2023-02-13T03:52:30.000Z,14.3
2023-02-13T03:56:02.000Z,14.9
2023-02-13T03:58:53.000Z,14.7
2023-02-13T04:02:26.000Z,14.8
2023-02-13T04:05:58.000Z,13.7
2023-02-13T04:09:31.000Z,13
2023-02-13T04:13:04.000Z,13.5
2023-02-13T04:16:36.000Z,14
2023-02-13T04:20:09.000Z,14.2
2023-02-13T04:23:42.000Z,13.9
2023-02-13T04:27:15.000Z,12.9
2023-02-13T04:30:47.000Z,12.6
2023-02-13T04:34:20.000Z,13.5
2023-02-13T04:37:11.000Z,14.5
2023-02-13T04:40:44.000Z,13.5
2023-02-13T04:44:16.000Z,11.9
2023-02-13T04:47:49.000Z,15.1
2023-02-13T04:51:22.000Z,13.7
2023-02-13T04:54:54.000Z,13.2
2023-02-13T04:58:27.000Z,12.2
2023-02-13T05:02:00.000Z,13.8
2023-02-13T05:05:32.000Z,13.7
2023-02-13T05:09:05.000Z,13.8
2023-02-13T05:12:37.000Z,12.2
2023-02-13T05:15:29.000Z,12.6
2023-02-13T05:19:01.000Z,12.7
2023-02-13T05:22:34.000Z,11.6
2023-02-13T05:26:07.000Z,14.1
2023-02-13T05:29:39.000Z,15.1
2023-02-13T05:33:12.000Z,15.7
2023-02-13T05:36:45.000Z,15.1
2023-02-13T05:40:17.000Z,14.3
2023-02-13T05:43:50.000Z,14.5
2023-02-13T05:47:22.000Z,13.6
2023-02-13T05:50:55.000Z,13.9
2023-02-13T05:53:46.000Z,16
2023-02-13T05:57:19.000Z,13.8
2023-02-13T06:00:51.000Z,14.9
2023-02-13T06:04:25.000Z,15.4
2023-02-13T06:07:58.000Z,13.9
2023-02-13T06:11:30.000Z,20.2
2023-02-13T06:15:03.000Z,17.8
2023-02-13T06:18:35.000Z,13.4
2023-02-13T06:22:08.000Z,12.1
2023-02-13T06:25:41.000Z,11.3
2023-02-13T06:29:13.000Z,11.1
2023-02-13T06:32:04.000Z,10.9
2023-02-13T06:35:37.000Z,11.9
2023-02-13T06:39:10.000Z,11.5
2023-02-13T06:42:42.000Z,11.1
2023-02-13T06:46:15.000Z,11.4
2023-02-13T06:49:48.000Z,11.5
2023-02-13T06:53:20.000Z,11.7
2023-02-13T06:56:53.000Z,11.5
2023-02-13T07:00:26.000Z,10.9
2023-02-13T07:03:59.000Z,11.6
2023-02-13T07:07:31.000Z,11.4
2023-02-13T07:10:23.000Z,11.5
2023-02-13T07:13:55.000Z,12
2023-02-13T07:17:28.000Z,11
2023-02-13T07:21:01.000Z,10.8
2023-02-13T07:24:33.000Z,12
2023-02-13T07:28:06.000Z,11.1
2023-02-13T07:31:39.000Z,11.3
2023-02-13T07:35:12.000Z,11.1
2023-02-13T07:38:45.000Z,11.6
2023-02-13T07:42:17.000Z,11.1
2023-02-13T07:45:50.000Z,10.9
2023-02-13T07:48:42.000Z,11.5
2023-02-13T07:52:14.000Z,11.9
2023-02-13T07:55:47.000Z,11.4
2023-02-13T07:59:20.000Z,12.7
2023-02-13T08:02:53.000Z,12.8
2023-02-13T08:06:25.000Z,12.6
2023-02-13T08:09:58.000Z,12.6
2023-02-13T08:13:30.000Z,12.7
2023-02-13T08:17:03.000Z,12.3
2023-02-13T08:20:36.000Z,13.1
2023-02-13T08:24:09.000Z,16.1
2023-02-13T08:27:00.000Z,14.4
2023-02-13T08:30:33.000Z,13.8
2023-02-13T08:34:05.000Z,16.2
2023-02-13T08:37:38.000Z,14.8
2023-02-13T08:41:12.000Z,14.7
2023-02-13T08:44:45.000Z,15.3
2023-02-13T08:48:18.000Z,14.3
2023-02-13T08:51:50.000Z,13.6
2023-02-13T08:55:23.000Z,12.8
2023-02-13T08:58:57.000Z,12.4
2023-02-13T09:02:30.000Z,12.7
2023-02-13T09:05:21.000Z,11.9
2023-02-13T09:08:54.000Z,12.7
2023-02-13T09:12:26.000Z,12.8
2023-02-13T09:15:59.000Z,11.8
2023-02-13T09:19:31.000Z,11.8
2023-02-13T09:23:04.000Z,11.8
2023-02-13T09:26:37.000Z,11.6
2023-02-13T09:30:09.000Z,11.5
2023-02-13T09:33:42.000Z,12.6
2023-02-13T09:37:15.000Z,11.5
2023-02-13T09:40:48.000Z,12.5
2023-02-13T09:43:39.000Z,14.2
2023-02-13T09:47:12.000Z,12.4
2023-02-13T09:50:44.000Z,12.7
2023-02-13T09:54:17.000Z,13.2
2023-02-13T09:57:50.000Z,12.1
2023-02-13T10:01:22.000Z,14.1
2023-02-13T10:04:55.000Z,13.2
2023-02-13T10:08:28.000Z,12.1
2023-02-13T10:12:00.000Z,13.5
2023-02-13T10:15:33.000Z,12.6
2023-02-13T10:19:06.000Z,11.9
2023-02-13T10:21:57.000Z,11.8
2023-02-13T10:25:30.000Z,12
2023-02-13T10:29:02.000Z,12.5
2023-02-13T10:32:35.000Z,11.7
2023-02-13T10:36:08.000Z,12.4
2023-02-13T10:39:40.000Z,13.2
2023-02-13T10:43:13.000Z,12.7
2023-02-13T10:46:46.000Z,12.7
2023-02-13T10:50:18.000Z,13.8
2023-02-13T10:53:51.000Z,12.2
2023-02-13T10:57:24.000Z,12.9
2023-02-13T11:00:15.000Z,13.2
2023-02-13T11:03:48.000Z,12.1
2023-02-13T11:07:21.000Z,9.8
2023-02-13T11:10:53.000Z,8.3
2023-02-13T11:14:26.000Z,7.8
2023-02-13T11:17:59.000Z,7.3
2023-02-13T11:21:32.000Z,7.4
2023-02-13T11:25:05.000Z,7.4
2023-02-13T11:28:38.000Z,9.7
2023-02-13T11:32:10.000Z,7.8
2023-02-13T11:35:43.000Z,7.4
2023-02-13T11:38:34.000Z,7.6
2023-02-13T11:42:07.000Z,6.6
2023-02-13T11:45:40.000Z,6.2
2023-02-13T11:49:12.000Z,7
2023-02-13T11:52:45.000Z,6.1
2023-02-13T11:56:18.000Z,8
2023-02-13T11:59:50.000Z,6.8
2023-02-13T12:03:23.000Z,6.6
2023-02-13T12:06:56.000Z,7.2
2023-02-13T12:10:28.000Z,6.6
2023-02-13T12:14:01.000Z,5.8
2023-02-13T12:16:52.000Z,6.3
2023-02-13T12:20:25.000Z,6.1
2023-02-13T12:23:57.000Z,5.2
2023-02-13T12:27:30.000Z,4.7
2023-02-13T12:31:03.000Z,5.1
2023-02-13T12:34:35.000Z,5.1
2023-02-13T12:38:08.000Z,4.8
2023-02-13T12:41:41.000Z,4.5
2023-02-13T12:45:13.000Z,4.3
2023-02-13T12:48:46.000Z,4
2023-02-13T12:52:20.000Z,4.3
2023-02-13T12:55:10.000Z,4.2
2023-02-13T12:58:43.000Z,3.9
2023-02-13T13:02:16.000Z,4.4
2023-02-13T13:05:48.000Z,4
2023-02-13T13:09:36.000Z,4.3
2023-02-13T13:13:09.000Z,4.3
2023-02-13T13:16:41.000Z,4.1
2023-02-13T13:20:14.000Z,4.8
2023-02-13T13:23:47.000Z,5.4
2023-02-13T13:27:19.000Z,4.7
2023-02-13T13:30:52.000Z,4.3
2023-02-13T13:33:44.000Z,4.2
2023-02-13T13:37:17.000Z,4.3
2023-02-13T13:40:50.000Z,4.7
2023-02-13T13:44:23.000Z,4.8
2023-02-13T13:47:55.000Z,4.6
2023-02-13T13:51:28.000Z,4.1
2023-02-13T13:55:01.000Z,5
2023-02-13T13:58:34.000Z,4.5
2023-02-13T14:02:06.000Z,4.6
2023-02-13T14:05:39.000Z,5.1
2023-02-13T14:09:14.000Z,5.1
2023-02-13T14:12:05.000Z,4.8
2023-02-13T14:15:38.000Z,5.3
2023-02-13T14:19:10.000Z,4.9
2023-02-13T14:22:43.000Z,5.6
2023-02-13T14:26:16.000Z,5.2
2023-02-13T14:29:48.000Z,5.2
2023-02-13T14:33:21.000Z,5.2
2023-02-13T14:36:54.000Z,4.9
2023-02-13T14:40:26.000Z,5.5
2023-02-13T14:43:59.000Z,4.8
2023-02-13T14:47:32.000Z,4.9
2023-02-13T14:50:23.000Z,4.4
2023-02-13T14:53:55.000Z,4.5
2023-02-13T14:57:28.000Z,4.5
2023-02-13T15:01:00.000Z,4.8
2023-02-13T15:04:33.000Z,4.6
2023-02-13T15:08:06.000Z,4.3
2023-02-13T15:11:39.000Z,4.1
2023-02-13T15:15:11.000Z,4.4
2023-02-13T15:18:44.000Z,4.2
2023-02-13T15:22:17.000Z,4
2023-02-13T15:25:49.000Z,5.2
2023-02-13T15:28:41.000Z,4.5
2023-02-13T15:32:13.000Z,4.1
2023-02-13T15:35:46.000Z,4.4
2023-02-13T15:39:19.000Z,4.3
2023-02-13T15:42:51.000Z,4.4
2023-02-13T15:46:24.000Z,4.5
2023-02-13T15:49:57.000Z,5.1
2023-02-13T15:53:30.000Z,4.3
2023-02-13T15:57:02.000Z,4.3
2023-02-13T16:00:35.000Z,4.4
2023-02-13T16:04:08.000Z,4.9
2023-02-13T16:06:59.000Z,4.5
2023-02-13T16:10:32.000Z,5.1
2023-02-13T16:14:04.000Z,4.5
2023-02-13T16:17:37.000Z,4.7
2023-02-13T16:21:10.000Z,4.6
2023-02-13T16:24:42.000Z,4.5
2023-02-13T16:28:15.000Z,5
2023-02-13T16:31:48.000Z,5
2023-02-13T16:35:20.000Z,4.7
2023-02-13T16:38:53.000Z,4.5
2023-02-13T16:42:26.000Z,4.5
2023-02-13T16:45:17.000Z,5
2023-02-13T16:48:49.000Z,4.7
2023-02-13T16:52:22.000Z,4.8
2023-02-13T16:55:55.000Z,5.4
2023-02-13T16:59:27.000Z,5.2
2023-02-13T17:03:00.000Z,5.3
2023-02-13T17:06:33.000Z,5.5
2023-02-13T17:10:05.000Z,5
2023-02-13T17:13:38.000Z,4
2023-02-13T17:17:11.000Z,4.7
2023-02-13T17:20:44.000Z,6.5
2023-02-13T17:23:35.000Z,5.1
2023-02-13T17:27:08.000Z,15
2023-02-13T17:30:40.000Z,13.5
2023-02-13T17:34:13.000Z,9.7
2023-02-13T17:37:46.000Z,7.1
2023-02-13T17:41:18.000Z,6.7
2023-02-13T17:44:51.000Z,6.1
2023-02-13T17:48:23.000Z,7.2
2023-02-13T17:52:08.000Z,6
2023-02-13T17:55:41.000Z,9
2023-02-13T17:59:14.000Z,7.1
2023-02-13T18:02:05.000Z,7.7
2023-02-13T18:05:38.000Z,8.4
2023-02-13T18:09:10.000Z,7
2023-02-13T18:12:43.000Z,9
2023-02-13T18:16:15.000Z,9
2023-02-13T18:19:48.000Z,8.1
2023-02-13T18:23:21.000Z,7.9
2023-02-13T18:26:53.000Z,8.6
2023-02-13T18:30:26.000Z,7.4
2023-02-13T18:33:59.000Z,8
2023-02-13T18:37:31.000Z,7.2
2023-02-13T18:40:22.000Z,9.5
2023-02-13T18:43:55.000Z,8.4
2023-02-13T18:47:28.000Z,8.8
2023-02-13T18:51:00.000Z,9
2023-02-13T18:54:33.000Z,8.9
2023-02-13T18:58:06.000Z,8.5
2023-02-13T19:01:38.000Z,9.2
2023-02-13T19:05:11.000Z,9.4
2023-02-13T19:08:43.000Z,9.9
2023-02-13T19:12:16.000Z,9.7
2023-02-13T19:15:49.000Z,9
2023-02-13T19:18:40.000Z,9.4
2023-02-13T19:22:15.000Z,9.4
2023-02-13T19:25:48.000Z,10.2
2023-02-13T19:29:20.000Z,10.2
2023-02-13T19:32:53.000Z,10.3
2023-02-13T19:36:26.000Z,9.4
2023-02-13T19:39:58.000Z,8.5
2023-02-13T19:43:31.000Z,8.2
2023-02-13T19:47:04.000Z,7.9
2023-02-13T19:50:36.000Z,10
2023-02-13T19:54:09.000Z,7.8
2023-02-13T19:57:00.000Z,7.2
2023-02-13T20:00:33.000Z,7.9
2023-02-13T20:04:06.000Z,6.6
2023-02-13T20:07:38.000Z,7.3
2023-02-13T20:11:11.000Z,7.8
2023-02-13T20:14:44.000Z,7.2
2023-02-13T20:18:16.000Z,7.4
2023-02-13T20:21:49.000Z,7.4
2023-02-13T20:25:22.000Z,7.6
2023-02-13T20:28:54.000Z,7.5
2023-02-13T20:32:27.000Z,7.8
2023-02-13T20:35:18.000Z,7.8
2023-02-13T20:38:52.000Z,8.1
2023-02-13T20:42:24.000Z,9.4
2023-02-13T20:45:57.000Z,8.4
2023-02-13T20:49:29.000Z,11
2023-02-13T20:53:02.000Z,11.2
2023-02-13T20:56:35.000Z,10.5
2023-02-13T21:00:08.000Z,10.1
2023-02-13T21:03:40.000Z,8.6
2023-02-13T21:07:13.000Z,8.8
2023-02-13T21:10:46.000Z,9.4
2023-02-13T21:13:37.000Z,9.6
2023-02-13T21:17:10.000Z,8.7
2023-02-13T21:20:42.000Z,9.1
2023-02-13T21:24:12.000Z,8.8
2023-02-13T21:27:44.000Z,8.5
2023-02-13T21:31:14.000Z,8.9
2023-02-13T21:34:44.000Z,9.9
2023-02-13T21:38:12.000Z,9.3
2023-02-13T21:41:41.000Z,8.7
2023-02-13T21:45:09.000Z,8.2
2023-02-13T21:48:37.000Z,7.7
2023-02-13T21:51:26.000Z,8.1
2023-02-13T21:54:55.000Z,8.5
2023-02-13T21:58:23.000Z,9.1
2023-02-13T22:01:51.000Z,8.2
2023-02-13T22:05:19.000Z,8.7
2023-02-13T22:08:47.000Z,8.6
2023-02-13T22:12:15.000Z,8.5
2023-02-13T22:15:43.000Z,8.4
2023-02-13T22:19:11.000Z,8.8
2023-02-13T22:22:39.000Z,8
2023-02-13T22:26:06.000Z,8.8
2023-02-13T22:28:56.000Z,8.3
2023-02-13T22:32:24.000Z,8.6
2023-02-13T22:36:01.000Z,8.5
2023-02-13T22:39:29.000Z,8.4
2023-02-13T22:42:57.000Z,8.1
2023-02-13T22:46:25.000Z,8.1
2023-02-13T22:49:54.000Z,9.4
2023-02-13T22:53:22.000Z,8.8
2023-02-13T22:56:50.000Z,9.3
2023-02-13T23:00:18.000Z,8.1
2023-02-13T23:03:46.000Z,8.4
2023-02-13T23:10:06.000Z,10.8
2023-02-13T23:13:34.000Z,8.7
2023-02-13T23:17:02.000Z,9
2023-02-13T23:20:30.000Z,8.6
2023-02-13T23:23:58.000Z,8.9
2023-02-13T23:27:26.000Z,9.3
2023-02-13T23:30:54.000Z,8.8
2023-02-13T23:34:23.000Z,9
2023-02-13T23:37:51.000Z,8.6
2023-02-13T23:41:19.000Z,9.4
2023-02-13T23:44:46.000Z,9.4
2023-02-13T23:50:06.000Z,9.2
2023-02-13T23:53:34.000Z,8.5
2023-02-13T23:57:02.000Z,8.5
